sensor_id;sensor_type;location;lat;lon;timestamp;pressure;altitude;pressure_sealevel;temperature;humidity
77749;BME280;66938;52.084;5.228;2023-08-20T00:00:09;102143.0;;;20.21;77.19
77749;BME280;66938;52.084;5.228;2023-08-20T00:01:48;102142.0;;;20.2;77.67
77749;BME280;66938;52.084;5.228;2023-08-20T00:03:30;102145.0;;;20.0;78.75
77749;BME280;66938;52.084;5.228;2023-08-20T00:05:08;102152.0;;;19.75;81.36
77749;BME280;66938;52.084;5.228;2023-08-20T00:08:22;102151.0;;;19.64;80.11
77749;BME280;66938;52.084;5.228;2023-08-20T00:09:59;102151.0;;;19.55;80.03
77749;BME280;66938;52.084;5.228;2023-08-20T00:11:36;102155.0;;;19.64;80.06
77749;BME280;66938;52.084;5.228;2023-08-20T00:14:54;102159.0;;;19.64;79.48
77749;BME280;66938;52.084;5.228;2023-08-20T00:16:32;102150.0;;;19.64;79.66
77749;BME280;66938;52.084;5.228;2023-08-20T00:18:09;102153.0;;;19.52;82.19
77749;BME280;66938;52.084;5.228;2023-08-20T00:19:47;102156.0;;;19.64;81.02
77749;BME280;66938;52.084;5.228;2023-08-20T00:23:03;102158.0;;;19.59;79.39
77749;BME280;66938;52.084;5.228;2023-08-20T00:24:42;102158.0;;;19.7;79.23
77749;BME280;66938;52.084;5.228;2023-08-20T00:26:19;102160.0;;;19.82;79.36
77749;BME280;66938;52.084;5.228;2023-08-20T00:29:31;102161.0;;;19.79;80.3
77749;BME280;66938;52.084;5.228;2023-08-20T00:31:08;102159.0;;;19.75;80.3
77749;BME280;66938;52.084;5.228;2023-08-20T00:32:44;102163.0;;;19.72;79.05
77749;BME280;66938;52.084;5.228;2023-08-20T00:35:57;102171.0;;;19.82;79.38
77749;BME280;66938;52.084;5.228;2023-08-20T00:37:34;102171.0;;;19.77;79.86
77749;BME280;66938;52.084;5.228;2023-08-20T00:39:11;102176.0;;;19.8;80.22
77749;BME280;66938;52.084;5.228;2023-08-20T00:40:47;102178.0;;;19.71;80.55
77749;BME280;66938;52.084;5.228;2023-08-20T00:44:02;102186.0;;;19.72;80.42
77749;BME280;66938;52.084;5.228;2023-08-20T00:45:40;102190.0;;;19.77;79.52
77749;BME280;66938;52.084;5.228;2023-08-20T00:47:18;102195.0;;;19.72;79.19
77749;BME280;66938;52.084;5.228;2023-08-20T00:50:33;102195.0;;;19.77;79.05
77749;BME280;66938;52.084;5.228;2023-08-20T00:52:11;102195.0;;;19.72;79.05
77749;BME280;66938;52.084;5.228;2023-08-20T00:53:50;102191.0;;;19.7;79.69
77749;BME280;66938;52.084;5.228;2023-08-20T00:55:26;102197.0;;;19.73;79.77
77749;BME280;66938;52.084;5.228;2023-08-20T00:58:42;102194.0;;;19.77;79.41
77749;BME280;66938;52.084;5.228;2023-08-20T01:00:20;102198.0;;;19.82;79.61
77749;BME280;66938;52.084;5.228;2023-08-20T01:02:00;102194.0;;;19.77;79.72
77749;BME280;66938;52.084;5.228;2023-08-20T01:05:15;102196.0;;;19.82;78.97
77749;BME280;66938;52.084;5.228;2023-08-20T01:06:58;102202.0;;;19.91;78.64
77749;BME280;66938;52.084;5.228;2023-08-20T01:08:40;102200.0;;;19.77;80.47
77749;BME280;66938;52.084;5.228;2023-08-20T01:10:21;102201.0;;;19.84;79.91
77749;BME280;66938;52.084;5.228;2023-08-20T01:12:03;102211.0;;;19.86;79.52
77749;BME280;66938;52.084;5.228;2023-08-20T01:15:16;102214.0;;;19.75;79.33
77749;BME280;66938;52.084;5.228;2023-08-20T01:16:53;102219.0;;;19.75;79.22
77749;BME280;66938;52.084;5.228;2023-08-20T01:18:30;102221.0;;;19.75;79.16
77749;BME280;66938;52.084;5.228;2023-08-20T01:21:56;102225.0;;;19.63;80.22
77749;BME280;66938;52.084;5.228;2023-08-20T01:23:56;102230.0;;;19.77;80.03
77749;BME280;66938;52.084;5.228;2023-08-20T01:25:48;102230.0;;;19.75;79.61
77749;BME280;66938;52.084;5.228;2023-08-20T01:27:43;102227.0;;;19.75;80.05
77749;BME280;66938;52.084;5.228;2023-08-20T01:29:35;102222.0;;;19.77;79.03
77749;BME280;66938;52.084;5.228;2023-08-20T01:31:14;102221.0;;;19.73;79.3
77749;BME280;66938;52.084;5.228;2023-08-20T01:34:30;102217.0;;;19.66;78.73
77749;BME280;66938;52.084;5.228;2023-08-20T01:36:08;102219.0;;;19.68;78.59
77749;BME280;66938;52.084;5.228;2023-08-20T01:37:45;102214.0;;;19.68;79.12
77749;BME280;66938;52.084;5.228;2023-08-20T01:39:21;102220.0;;;19.75;78.56
77749;BME280;66938;52.084;5.228;2023-08-20T01:42:35;102220.0;;;19.66;78.36
77749;BME280;66938;52.084;5.228;2023-08-20T01:44:11;102220.0;;;19.59;78.45
77749;BME280;66938;52.084;5.228;2023-08-20T01:45:48;102223.0;;;19.55;78.94
77749;BME280;66938;52.084;5.228;2023-08-20T01:49:02;102228.0;;;19.59;79.27
77749;BME280;66938;52.084;5.228;2023-08-20T01:50:39;102239.0;;;19.57;79.49
77749;BME280;66938;52.084;5.228;2023-08-20T01:52:15;102236.0;;;19.52;79.58
77749;BME280;66938;52.084;5.228;2023-08-20T01:53:51;102235.0;;;19.52;79.39
77749;BME280;66938;52.084;5.228;2023-08-20T01:57:05;102239.0;;;19.53;78.97
77749;BME280;66938;52.084;5.228;2023-08-20T01:58:42;102244.0;;;19.55;79.03
77749;BME280;66938;52.084;5.228;2023-08-20T02:00:19;102243.0;;;19.53;78.87
77749;BME280;66938;52.084;5.228;2023-08-20T02:03:31;102236.0;;;19.45;80.17
77749;BME280;66938;52.084;5.228;2023-08-20T02:05:07;102237.0;;;19.41;80.97
77749;BME280;66938;52.084;5.228;2023-08-20T02:06:44;102240.0;;;19.45;80.67
77749;BME280;66938;52.084;5.228;2023-08-20T02:09:57;102240.0;;;19.41;80.69
77749;BME280;66938;52.084;5.228;2023-08-20T02:11:34;102231.0;;;19.43;80.41
77749;BME280;66938;52.084;5.228;2023-08-20T02:13:11;102224.0;;;19.37;81.41
77749;BME280;66938;52.084;5.228;2023-08-20T02:14:47;102225.0;;;19.32;81.67
77749;BME280;66938;52.084;5.228;2023-08-20T02:18:00;102235.0;;;19.46;79.86
77749;BME280;66938;52.084;5.228;2023-08-20T02:19:37;102237.0;;;19.39;79.61
77749;BME280;66938;52.084;5.228;2023-08-20T02:21:15;102242.0;;;19.31;80.28
77749;BME280;66938;52.084;5.228;2023-08-20T02:24:28;102237.0;;;19.12;82.12
77749;BME280;66938;52.084;5.228;2023-08-20T02:26:05;102227.0;;;19.11;81.25
77749;BME280;66938;52.084;5.228;2023-08-20T02:27:41;102227.0;;;19.09;80.8
77749;BME280;66938;52.084;5.228;2023-08-20T02:30:54;102226.0;;;19.05;80.77
77749;BME280;66938;52.084;5.228;2023-08-20T02:32:31;102225.0;;;18.95;81.95
77749;BME280;66938;52.084;5.228;2023-08-20T02:34:07;102224.0;;;18.91;82.05
77749;BME280;66938;52.084;5.228;2023-08-20T02:35:45;102218.0;;;18.88;82.38
77749;BME280;66938;52.084;5.228;2023-08-20T02:38:58;102218.0;;;18.95;81.93
77749;BME280;66938;52.084;5.228;2023-08-20T02:40:39;102216.0;;;19.06;81.28
77749;BME280;66938;52.084;5.228;2023-08-20T02:42:16;102218.0;;;19.06;80.97
77749;BME280;66938;52.084;5.228;2023-08-20T02:45:29;102213.0;;;19.13;80.72
77749;BME280;66938;52.084;5.228;2023-08-20T02:47:05;102212.0;;;19.18;80.72
77749;BME280;66938;52.084;5.228;2023-08-20T02:48:42;102207.0;;;19.14;80.52
77749;BME280;66938;52.084;5.228;2023-08-20T02:50:19;102210.0;;;19.09;80.38
77749;BME280;66938;52.084;5.228;2023-08-20T02:53:32;102213.0;;;19.0;80.47
77749;BME280;66938;52.084;5.228;2023-08-20T02:56:48;102214.0;;;18.88;80.98
77749;BME280;66938;52.084;5.228;2023-08-20T03:00:01;102218.0;;;18.84;81.22
77749;BME280;66938;52.084;5.228;2023-08-20T03:01:38;102224.0;;;18.79;81.22
77749;BME280;66938;52.084;5.228;2023-08-20T03:03:15;102224.0;;;18.66;81.93
77749;BME280;66938;52.084;5.228;2023-08-20T03:06:28;102217.0;;;18.68;81.91
77749;BME280;66938;52.084;5.228;2023-08-20T03:08:06;102221.0;;;18.64;82.37
77749;BME280;66938;52.084;5.228;2023-08-20T03:09:42;102216.0;;;18.71;82.39
77749;BME280;66938;52.084;5.228;2023-08-20T03:11:19;102219.0;;;18.68;82.4
77749;BME280;66938;52.084;5.228;2023-08-20T03:14:33;102221.0;;;18.68;81.91
77749;BME280;66938;52.084;5.228;2023-08-20T03:16:09;102219.0;;;18.71;82.05
77749;BME280;66938;52.084;5.228;2023-08-20T03:17:45;102222.0;;;18.78;81.67
77749;BME280;66938;52.084;5.228;2023-08-20T03:20:59;102223.0;;;18.81;81.56
77749;BME280;66938;52.084;5.228;2023-08-20T03:22:37;102217.0;;;18.8;81.59
77749;BME280;66938;52.084;5.228;2023-08-20T03:24:14;102214.0;;;18.59;82.79
77749;BME280;66938;52.084;5.228;2023-08-20T03:27:28;102213.0;;;18.57;82.68
77749;BME280;66938;52.084;5.228;2023-08-20T03:29:04;102227.0;;;18.63;82.1
77749;BME280;66938;52.084;5.228;2023-08-20T03:30:41;102221.0;;;18.61;81.91
77749;BME280;66938;52.084;5.228;2023-08-20T03:32:18;102231.0;;;18.68;82.0
77749;BME280;66938;52.084;5.228;2023-08-20T03:35:31;102230.0;;;18.75;82.62
77749;BME280;66938;52.084;5.228;2023-08-20T03:37:08;102230.0;;;18.68;82.5
77749;BME280;66938;52.084;5.228;2023-08-20T03:38:44;102238.0;;;18.7;82.23
77749;BME280;66938;52.084;5.228;2023-08-20T03:41:57;102239.0;;;18.68;81.72
77749;BME280;66938;52.084;5.228;2023-08-20T03:43:34;102239.0;;;18.73;81.3
77749;BME280;66938;52.084;5.228;2023-08-20T03:45:10;102244.0;;;18.75;81.2
77749;BME280;66938;52.084;5.228;2023-08-20T03:48:23;102246.0;;;18.77;81.06
77749;BME280;66938;52.084;5.228;2023-08-20T03:50:01;102249.0;;;18.75;80.92
77749;BME280;66938;52.084;5.228;2023-08-20T03:51:37;102250.0;;;18.77;80.88
77749;BME280;66938;52.084;5.228;2023-08-20T03:53:13;102250.0;;;18.7;81.05
77749;BME280;66938;52.084;5.228;2023-08-20T03:56:27;102253.0;;;18.7;81.2
77749;BME280;66938;52.084;5.228;2023-08-20T03:58:04;102251.0;;;18.56;81.73
77749;BME280;66938;52.084;5.228;2023-08-20T03:59:40;102256.0;;;18.63;81.49
77749;BME280;66938;52.084;5.228;2023-08-20T04:02:54;102258.0;;;18.61;81.41
77749;BME280;66938;52.084;5.228;2023-08-20T04:04:30;102259.0;;;18.55;81.61
77749;BME280;66938;52.084;5.228;2023-08-20T04:06:08;102252.0;;;18.66;81.34
77749;BME280;66938;52.084;5.228;2023-08-20T04:07:44;102261.0;;;18.61;82.44
77749;BME280;66938;52.084;5.228;2023-08-20T04:10:56;102260.0;;;18.57;82.21
77749;BME280;66938;52.084;5.228;2023-08-20T04:12:33;102261.0;;;18.5;82.68
77749;BME280;66938;52.084;5.228;2023-08-20T04:14:10;102264.0;;;18.56;82.85
77749;BME280;66938;52.084;5.228;2023-08-20T04:17:24;102264.0;;;18.66;82.44
77749;BME280;66938;52.084;5.228;2023-08-20T04:19:01;102265.0;;;18.37;84.83
77749;BME280;66938;52.084;5.228;2023-08-20T04:20:38;102269.0;;;18.25;85.44
77749;BME280;66938;52.084;5.228;2023-08-20T04:23:50;102271.0;;;18.27;83.97
77749;BME280;66938;52.084;5.228;2023-08-20T04:25:26;102276.0;;;18.23;83.96
77749;BME280;66938;52.084;5.228;2023-08-20T04:27:03;102275.0;;;18.11;85.91
77749;BME280;66938;52.084;5.228;2023-08-20T04:28:40;102277.0;;;18.18;84.97
77749;BME280;66938;52.084;5.228;2023-08-20T04:31:54;102276.0;;;18.02;85.34
77749;BME280;66938;52.084;5.228;2023-08-20T04:33:30;102277.0;;;18.06;86.26
77749;BME280;66938;52.084;5.228;2023-08-20T04:35:06;102280.0;;;18.04;85.63
77749;BME280;66938;52.084;5.228;2023-08-20T04:38:20;102284.0;;;17.95;87.0
77749;BME280;66938;52.084;5.228;2023-08-20T04:39:57;102278.0;;;17.95;85.51
77749;BME280;66938;52.084;5.228;2023-08-20T04:41:34;102284.0;;;17.95;85.45
77749;BME280;66938;52.084;5.228;2023-08-20T04:44:47;102286.0;;;17.93;85.54
77749;BME280;66938;52.084;5.228;2023-08-20T04:46:24;102286.0;;;17.84;85.74
77749;BME280;66938;52.084;5.228;2023-08-20T04:48:01;102292.0;;;17.91;85.18
77749;BME280;66938;52.084;5.228;2023-08-20T04:49:37;102291.0;;;18.02;84.54
77749;BME280;66938;52.084;5.228;2023-08-20T04:52:51;102298.0;;;18.02;84.46
77749;BME280;66938;52.084;5.228;2023-08-20T04:54:28;102298.0;;;18.04;84.01
77749;BME280;66938;52.084;5.228;2023-08-20T04:56:05;102298.0;;;18.02;83.95
77749;BME280;66938;52.084;5.228;2023-08-20T04:59:18;102297.0;;;17.98;84.01
77749;BME280;66938;52.084;5.228;2023-08-20T05:00:54;102298.0;;;18.0;83.86
77749;BME280;66938;52.084;5.228;2023-08-20T05:02:31;102296.0;;;17.97;84.09
77749;BME280;66938;52.084;5.228;2023-08-20T05:05:48;102297.0;;;18.0;84.28
77749;BME280;66938;52.084;5.228;2023-08-20T05:07:25;102298.0;;;18.09;83.97
77749;BME280;66938;52.084;5.228;2023-08-20T05:09:02;102297.0;;;18.16;83.83
77749;BME280;66938;52.084;5.228;2023-08-20T05:10:39;102299.0;;;18.2;83.77
77749;BME280;66938;52.084;5.228;2023-08-20T05:13:54;102303.0;;;18.25;83.66
77749;BME280;66938;52.084;5.228;2023-08-20T05:15:32;102305.0;;;18.25;83.59
77749;BME280;66938;52.084;5.228;2023-08-20T05:17:08;102300.0;;;18.18;83.91
77749;BME280;66938;52.084;5.228;2023-08-20T05:20:22;102305.0;;;18.18;83.74
77749;BME280;66938;52.084;5.228;2023-08-20T05:21:59;102307.0;;;18.07;83.81
77749;BME280;66938;52.084;5.228;2023-08-20T05:23:36;102308.0;;;18.07;83.83
77749;BME280;66938;52.084;5.228;2023-08-20T05:25:12;102310.0;;;18.02;83.92
77749;BME280;66938;52.084;5.228;2023-08-20T05:28:40;102314.0;;;17.95;84.01
77749;BME280;66938;52.084;5.228;2023-08-20T05:30:17;102310.0;;;17.89;84.42
77749;BME280;66938;52.084;5.228;2023-08-20T05:31:54;102313.0;;;17.93;84.51
77749;BME280;66938;52.084;5.228;2023-08-20T05:33:31;102312.0;;;17.97;84.67
77749;BME280;66938;52.084;5.228;2023-08-20T05:36:45;102308.0;;;17.91;85.19
77749;BME280;66938;52.084;5.228;2023-08-20T05:38:22;102314.0;;;17.89;85.38
77749;BME280;66938;52.084;5.228;2023-08-20T05:39:58;102313.0;;;18.0;85.49
77749;BME280;66938;52.084;5.228;2023-08-20T05:43:12;102315.0;;;18.03;85.12
77749;BME280;66938;52.084;5.228;2023-08-20T05:44:48;102316.0;;;17.97;85.37
77749;BME280;66938;52.084;5.228;2023-08-20T05:46:24;102317.0;;;18.0;85.62
77749;BME280;66938;52.084;5.228;2023-08-20T05:49:38;102318.0;;;18.05;85.44
77749;BME280;66938;52.084;5.228;2023-08-20T05:51:14;102313.0;;;18.07;85.56
77749;BME280;66938;52.084;5.228;2023-08-20T05:52:51;102317.0;;;18.11;85.32
77749;BME280;66938;52.084;5.228;2023-08-20T05:54:28;102314.0;;;18.18;85.16
77749;BME280;66938;52.084;5.228;2023-08-20T05:57:41;102318.0;;;18.23;85.08
77749;BME280;66938;52.084;5.228;2023-08-20T05:59:18;102313.0;;;18.32;84.93
77749;BME280;66938;52.084;5.228;2023-08-20T06:00:54;102314.0;;;18.37;84.77
77749;BME280;66938;52.084;5.228;2023-08-20T06:04:08;102309.0;;;18.43;84.57
77749;BME280;66938;52.084;5.228;2023-08-20T06:05:45;102310.0;;;18.5;84.53
77749;BME280;66938;52.084;5.228;2023-08-20T06:07:22;102305.0;;;18.52;84.75
77749;BME280;66938;52.084;5.228;2023-08-20T06:10:36;102305.0;;;18.53;85.06
77749;BME280;66938;52.084;5.228;2023-08-20T06:12:13;102308.0;;;18.59;85.1
77749;BME280;66938;52.084;5.228;2023-08-20T06:13:50;102310.0;;;18.68;84.83
77749;BME280;66938;52.084;5.228;2023-08-20T06:15:28;102308.0;;;18.73;84.45
77749;BME280;66938;52.084;5.228;2023-08-20T06:18:41;102306.0;;;18.77;83.8
77749;BME280;66938;52.084;5.228;2023-08-20T06:20:17;102301.0;;;18.82;83.36
77749;BME280;66938;52.084;5.228;2023-08-20T06:21:54;102305.0;;;18.89;83.11
77749;BME280;66938;52.084;5.228;2023-08-20T06:25:08;102310.0;;;19.0;82.83
77749;BME280;66938;52.084;5.228;2023-08-20T06:26:44;102309.0;;;19.04;82.41
77749;BME280;66938;52.084;5.228;2023-08-20T06:28:21;102306.0;;;19.12;81.87
77749;BME280;66938;52.084;5.228;2023-08-20T06:31:35;102306.0;;;19.18;81.56
77749;BME280;66938;52.084;5.228;2023-08-20T06:33:11;102310.0;;;19.3;81.56
77749;BME280;66938;52.084;5.228;2023-08-20T06:34:48;102306.0;;;19.34;81.41
77749;BME280;66938;52.084;5.228;2023-08-20T06:36:25;102310.0;;;19.41;81.16
77749;BME280;66938;52.084;5.228;2023-08-20T06:39:39;102315.0;;;19.46;81.09
77749;BME280;66938;52.084;5.228;2023-08-20T06:41:17;102310.0;;;19.53;80.87
77749;BME280;66938;52.084;5.228;2023-08-20T06:42:54;102307.0;;;19.63;80.77
77749;BME280;66938;52.084;5.228;2023-08-20T06:46:08;102303.0;;;19.64;80.22
77749;BME280;66938;52.084;5.228;2023-08-20T06:47:45;102306.0;;;19.72;79.86
77749;BME280;66938;52.084;5.228;2023-08-20T06:49:21;102303.0;;;19.79;79.86
77749;BME280;66938;52.084;5.228;2023-08-20T06:50:57;102305.0;;;19.88;79.86
77749;BME280;66938;52.084;5.228;2023-08-20T06:54:09;102306.0;;;19.95;79.49
77749;BME280;66938;52.084;5.228;2023-08-20T06:55:46;102310.0;;;20.0;79.44
77749;BME280;66938;52.084;5.228;2023-08-20T06:57:22;102311.0;;;20.04;79.19
77749;BME280;66938;52.084;5.228;2023-08-20T07:00:37;102308.0;;;20.13;79.3
77749;BME280;66938;52.084;5.228;2023-08-20T07:02:13;102309.0;;;20.18;79.03
77749;BME280;66938;52.084;5.228;2023-08-20T07:03:51;102305.0;;;20.27;79.13
77749;BME280;66938;52.084;5.228;2023-08-20T07:07:04;102305.0;;;20.37;78.95
77749;BME280;66938;52.084;5.228;2023-08-20T07:08:41;102307.0;;;20.43;78.05
77749;BME280;66938;52.084;5.228;2023-08-20T07:10:18;102310.0;;;20.46;77.77
77749;BME280;66938;52.084;5.228;2023-08-20T07:11:55;102310.0;;;20.43;77.19
77749;BME280;66938;52.084;5.228;2023-08-20T07:15:09;102309.0;;;20.58;76.87
77749;BME280;66938;52.084;5.228;2023-08-20T07:16:45;102314.0;;;20.6;76.61
77749;BME280;66938;52.084;5.228;2023-08-20T07:18:22;102314.0;;;20.64;76.33
77749;BME280;66938;52.084;5.228;2023-08-20T07:21:36;102323.0;;;20.64;76.08
77749;BME280;66938;52.084;5.228;2023-08-20T07:23:13;102325.0;;;20.65;76.06
77749;BME280;66938;52.084;5.228;2023-08-20T07:24:50;102325.0;;;20.7;75.88
77749;BME280;66938;52.084;5.228;2023-08-20T07:28:04;102322.0;;;20.77;76.02
77749;BME280;66938;52.084;5.228;2023-08-20T07:29:41;102325.0;;;20.77;76.24
77749;BME280;66938;52.084;5.228;2023-08-20T07:31:17;102327.0;;;20.77;75.7
77749;BME280;66938;52.084;5.228;2023-08-20T07:32:54;102326.0;;;20.89;76.27
77749;BME280;66938;52.084;5.228;2023-08-20T07:36:09;102330.0;;;21.04;76.34
77749;BME280;66938;52.084;5.228;2023-08-20T07:37:46;102335.0;;;21.04;75.27
77749;BME280;66938;52.084;5.228;2023-08-20T07:39:24;102330.0;;;21.16;74.98
77749;BME280;66938;52.084;5.228;2023-08-20T07:42:37;102336.0;;;21.26;74.87
77749;BME280;66938;52.084;5.228;2023-08-20T07:44:14;102340.0;;;21.36;74.87
77749;BME280;66938;52.084;5.228;2023-08-20T07:45:51;102341.0;;;21.34;73.91
77749;BME280;66938;52.084;5.228;2023-08-20T07:47:28;102341.0;;;21.41;73.55
77749;BME280;66938;52.084;5.228;2023-08-20T07:50:41;102345.0;;;21.41;73.2
77749;BME280;66938;52.084;5.228;2023-08-20T07:52:19;102346.0;;;21.46;72.8
77749;BME280;66938;52.084;5.228;2023-08-20T07:53:56;102345.0;;;21.56;72.94
77749;BME280;66938;52.084;5.228;2023-08-20T07:57:10;102350.0;;;21.62;72.56
77749;BME280;66938;52.084;5.228;2023-08-20T07:58:47;102348.0;;;21.63;71.31
77749;BME280;66938;52.084;5.228;2023-08-20T08:00:23;102349.0;;;21.75;71.69
77749;BME280;66938;52.084;5.228;2023-08-20T08:03:37;102347.0;;;21.8;71.09
77749;BME280;66938;52.084;5.228;2023-08-20T08:05:14;102347.0;;;21.84;68.44
77749;BME280;66938;52.084;5.228;2023-08-20T08:06:51;102350.0;;;21.96;69.2
77749;BME280;66938;52.084;5.228;2023-08-20T08:08:28;102352.0;;;22.01;68.58
77749;BME280;66938;52.084;5.228;2023-08-20T08:11:43;102351.0;;;22.1;69.55
77749;BME280;66938;52.084;5.228;2023-08-20T08:13:22;102353.0;;;22.18;68.77
77749;BME280;66938;52.084;5.228;2023-08-20T08:14:59;102359.0;;;22.17;68.27
77749;BME280;66938;52.084;5.228;2023-08-20T08:18:12;102360.0;;;22.17;67.8
77749;BME280;66938;52.084;5.228;2023-08-20T08:19:49;102363.0;;;22.24;67.88
77749;BME280;66938;52.084;5.228;2023-08-20T08:21:26;102362.0;;;22.31;67.74
77749;BME280;66938;52.084;5.228;2023-08-20T08:23:03;102363.0;;;22.27;67.87
77749;BME280;66938;52.084;5.228;2023-08-20T08:26:17;102363.0;;;22.34;68.24
77749;BME280;66938;52.084;5.228;2023-08-20T08:27:54;102361.0;;;22.35;67.52
77749;BME280;66938;52.084;5.228;2023-08-20T08:29:31;102362.0;;;22.44;69.02
77749;BME280;66938;52.084;5.228;2023-08-20T08:32:45;102362.0;;;22.55;68.14
77749;BME280;66938;52.084;5.228;2023-08-20T08:34:21;102367.0;;;22.62;68.81
77749;BME280;66938;52.084;5.228;2023-08-20T08:35:59;102371.0;;;22.61;68.38
77749;BME280;66938;52.084;5.228;2023-08-20T08:37:36;102375.0;;;22.64;67.88
77749;BME280;66938;52.084;5.228;2023-08-20T08:40:50;102370.0;;;22.64;66.67
77749;BME280;66938;52.084;5.228;2023-08-20T08:42:27;102373.0;;;22.65;66.67
77749;BME280;66938;52.084;5.228;2023-08-20T08:44:05;102374.0;;;22.68;65.35
77749;BME280;66938;52.084;5.228;2023-08-20T08:47:23;102376.0;;;22.74;65.33
77749;BME280;66938;52.084;5.228;2023-08-20T08:49:03;102375.0;;;22.66;64.94
77749;BME280;66938;52.084;5.228;2023-08-20T08:50:39;102373.0;;;22.71;65.83
77749;BME280;66938;52.084;5.228;2023-08-20T08:52:17;102363.0;;;22.76;67.14
77749;BME280;66938;52.084;5.228;2023-08-20T08:55:33;102369.0;;;22.78;66.2
77749;BME280;66938;52.084;5.228;2023-08-20T08:57:10;102369.0;;;22.79;65.55
77749;BME280;66938;52.084;5.228;2023-08-20T08:58:47;102371.0;;;22.91;65.52
77749;BME280;66938;52.084;5.228;2023-08-20T09:02:00;102375.0;;;22.98;65.22
77749;BME280;66938;52.084;5.228;2023-08-20T09:03:38;102374.0;;;23.0;64.19
77749;BME280;66938;52.084;5.228;2023-08-20T09:05:15;102373.0;;;23.04;64.22
77749;BME280;66938;52.084;5.228;2023-08-20T09:06:54;102368.0;;;23.1;64.44
77749;BME280;66938;52.084;5.228;2023-08-20T09:10:08;102367.0;;;23.17;64.33
77749;BME280;66938;52.084;5.228;2023-08-20T09:11:46;102365.0;;;23.2;63.28
77749;BME280;66938;52.084;5.228;2023-08-20T09:13:23;102372.0;;;23.24;64.75
77749;BME280;66938;52.084;5.228;2023-08-20T09:16:38;102368.0;;;23.37;63.64
77749;BME280;66938;52.084;5.228;2023-08-20T09:18:15;102367.0;;;23.47;63.89
77749;BME280;66938;52.084;5.228;2023-08-20T09:19:54;102370.0;;;23.55;63.84
77749;BME280;66938;52.084;5.228;2023-08-20T09:21:32;102373.0;;;23.45;61.95
77749;BME280;66938;52.084;5.228;2023-08-20T09:26:31;102375.0;;;23.59;61.26
77749;BME280;66938;52.084;5.228;2023-08-20T09:28:08;102377.0;;;23.63;60.85
77749;BME280;66938;52.084;5.228;2023-08-20T09:31:38;102376.0;;;23.69;61.99
77749;BME280;66938;52.084;5.228;2023-08-20T09:33:16;102375.0;;;23.69;62.0
77749;BME280;66938;52.084;5.228;2023-08-20T09:34:55;102375.0;;;23.69;61.54
77749;BME280;66938;52.084;5.228;2023-08-20T09:36:33;102375.0;;;23.68;61.78
77749;BME280;66938;52.084;5.228;2023-08-20T09:39:48;102374.0;;;23.69;58.56
77749;BME280;66938;52.084;5.228;2023-08-20T09:41:25;102377.0;;;23.8;60.04
77749;BME280;66938;52.084;5.228;2023-08-20T09:43:03;102378.0;;;23.86;60.49
77749;BME280;66938;52.084;5.228;2023-08-20T09:44:42;102375.0;;;23.91;59.85
77749;BME280;66938;52.084;5.228;2023-08-20T09:48:03;102377.0;;;23.84;56.55
77749;BME280;66938;52.084;5.228;2023-08-20T09:49:47;102377.0;;;23.93;56.55
77749;BME280;66938;52.084;5.228;2023-08-20T09:51:26;102380.0;;;23.97;58.11
77749;BME280;66938;52.084;5.228;2023-08-20T09:53:06;102380.0;;;24.07;56.94
77749;BME280;66938;52.084;5.228;2023-08-20T09:56:38;102372.0;;;23.96;56.23
77749;BME280;66938;52.084;5.228;2023-08-20T09:58:16;102373.0;;;24.08;57.71
77749;BME280;66938;52.084;5.228;2023-08-20T09:59:53;102370.0;;;24.16;58.66
77749;BME280;66938;52.084;5.228;2023-08-20T10:01:31;102373.0;;;24.26;57.28
77749;BME280;66938;52.084;5.228;2023-08-20T10:04:47;102374.0;;;24.21;57.86
77749;BME280;66938;52.084;5.228;2023-08-20T10:06:27;102375.0;;;24.18;56.01
77749;BME280;66938;52.084;5.228;2023-08-20T10:08:07;102380.0;;;24.18;56.13
77749;BME280;66938;52.084;5.228;2023-08-20T10:09:45;102383.0;;;24.23;56.62
77749;BME280;66938;52.084;5.228;2023-08-20T10:13:00;102386.0;;;24.31;57.75
77749;BME280;66938;52.084;5.228;2023-08-20T10:14:37;102384.0;;;24.32;56.7
77749;BME280;66938;52.084;5.228;2023-08-20T10:16:17;102380.0;;;24.42;57.41
77749;BME280;66938;52.084;5.228;2023-08-20T10:19:30;102382.0;;;24.43;55.87
77749;BME280;66938;52.084;5.228;2023-08-20T10:21:06;102380.0;;;24.51;55.87
77749;BME280;66938;52.084;5.228;2023-08-20T10:22:45;102378.0;;;24.62;55.76
77749;BME280;66938;52.084;5.228;2023-08-20T10:24:23;102374.0;;;24.62;55.06
77749;BME280;66938;52.084;5.228;2023-08-20T10:27:44;102377.0;;;24.73;54.52
77749;BME280;66938;52.084;5.228;2023-08-20T10:29:38;102370.0;;;24.7;54.86
77749;BME280;66938;52.084;5.228;2023-08-20T10:31:16;102375.0;;;24.75;55.69
77749;BME280;66938;52.084;5.228;2023-08-20T10:32:55;102371.0;;;24.79;55.6
77749;BME280;66938;52.084;5.228;2023-08-20T10:36:15;102366.0;;;24.89;56.12
77749;BME280;66938;52.084;5.228;2023-08-20T10:38:12;102372.0;;;24.97;56.17
77749;BME280;66938;52.084;5.228;2023-08-20T10:39:53;102371.0;;;25.04;54.52
77749;BME280;66938;52.084;5.228;2023-08-20T10:41:30;102377.0;;;25.0;54.41
77749;BME280;66938;52.084;5.228;2023-08-20T10:43:06;102374.0;;;25.14;54.08
77749;BME280;66938;52.084;5.228;2023-08-20T10:46:49;102372.0;;;25.12;52.46
77749;BME280;66938;52.084;5.228;2023-08-20T10:48:26;102369.0;;;25.22;53.75
77749;BME280;66938;52.084;5.228;2023-08-20T10:50:04;102371.0;;;25.14;52.66
77749;BME280;66938;52.084;5.228;2023-08-20T10:51:41;102372.0;;;25.25;53.91
77749;BME280;66938;52.084;5.228;2023-08-20T10:54:58;102372.0;;;25.19;51.78
77749;BME280;66938;52.084;5.228;2023-08-20T10:56:38;102369.0;;;25.39;54.63
77749;BME280;66938;52.084;5.228;2023-08-20T10:58:23;102373.0;;;25.37;52.64
77749;BME280;66938;52.084;5.228;2023-08-20T11:00:03;102371.0;;;25.36;51.96
77749;BME280;66938;52.084;5.228;2023-08-20T11:03:22;102373.0;;;25.36;50.08
77749;BME280;66938;52.084;5.228;2023-08-20T11:04:59;102371.0;;;25.47;51.34
77749;BME280;66938;52.084;5.228;2023-08-20T11:06:36;102376.0;;;25.64;53.23
77749;BME280;66938;52.084;5.228;2023-08-20T11:08:15;102375.0;;;25.7;50.92